Terminal Aerodrome Forecast
Issued by NWS

Home | Current Version | Previous Version | Text Only | Print | Product List | Glossary On
Versions: 1 2 3 4 5 6 7 8 9 10 11 12 13 14
000
FTUS43 KEAX 241000 AAA
TAFSTJ
TAF AMD
KSTJ 241032Z 2411/2506 34015KT 6SM -RASN BR OVC010
      TEMPO 2411/2413 5SM -SN BR BKN008
     FM241400 33015G23KT P6SM OVC012
     FM241900 32014KT P6SM OVC020
     FM250300 23006KT P6SM FEW025=

USA.gov is the U.S. government's official web portal to all federal, state and local government web resources and services.